Huvudsida
METAR-TAF:

METAR-TAF

Flygplatser :

Kristiansunds flygplats. Kvernberget

Kristiansunds, Norge

latitud: 63-07N, longitud: 007-50E, höjd: 6 m

Aktuellt väderrapport

Denna rapport gjordes för 15 minuter sedan, klockan 23:20 UTC
Vind 2 kt varierande vindriktning
Temperatur 1°C
Fuktighet 93%
Tryck 1011 hPa
Sikt: 7000 m
lätt regn

METAR: ENKB 182320Z AUTO VRB02KT 7000 -RA ///047/// 01/00 Q1011 RMK WIND 745FT 18006KT

Tid: 00:35 (23:35 UTC)

Väderprognos

Denna rapport gjordes för 6 timmar och 35 minuter sedan, klockan 17:00 UTC
Prognos gäller från 18 kl. 18 UTC till 18 kl. 22 UTC
Vind 5 kt varierande vindriktning
Sikt 10 km eller mer
Brutna moln på en höjd av 2000 ft
lätt regn
Sannolikhet 30%
från 18 kl. 18 UTC till 18 kl. 22 UTC
Sikt: 3000 m
på en höjd av 1200 ft
snö, regn

TAF: ENKB 181700Z 1818/1822 VRB05KT 9999 -RA BKN020 PROB30 1818/1822 3000 SNRA VV012

Aktuella väderrapporter och prognoser från 4000 flygplatser (METAR- och TAF-rapporter).

De tillgängliga stationerna syns som gula och röda prickar på kartan.

För musen över prickarna för att se namnen på stationerna.

Klicka sedan för att få väderrapporter och prognoser.

För att ändra kartan: Klicka på de gröna knapparna med ett svart kors på för att zooma in; den gröna knappen med ett streck på för att zooma ut; eller på de gröna pilarna för angränsande kartor.


METAR-TAF: